Airfield :
LOGIN :

Register | Disclaimer

   EN    FR    IT 

 










Legend :    VFR   Marginal VFR   IFR   Intensive IFR   Very Intensive IFR
Visi :
Ceiling :
>= 8 km
>= 3000ft
5 to 8 km
1000 to 3000 ft
1500m to 5 km
500 to 1000 ft
800 to 1500m
200 to 500 ft
< 800m
< 200 ft
Symbols :   Thunderstorms  Fog  Heavy snow  Heavy precipitations  Wind > 20 kt
SIGMETs :     Misc.  Thunderstorms  Icing  Turbulence  Mountain Waves  Volcanic Ashes







- Airport Elevation : 147 ft
- IATA code : DUS


EDDL - Düsseldorf Int.

CURRENT METAR :
  • 210250Z 35004KT CAVOK 11/07 Q1018 NOSIG

EXPIRED METARs :
  • 210220Z 01005KT CAVOK 11/08 Q1018 NOSIG
  • 210150Z 01005KT CAVOK 12/08 Q1018 NOSIG
  • 210120Z 01004KT CAVOK 12/08 Q1018 NOSIG
  • 210050Z 35004KT CAVOK 12/08 Q1018 NOSIG
  • 210020Z 35003KT CAVOK 12/08 Q1018 NOSIG

TAF TAF EDDL
Valid from the 21 at 00:00 until the 22 at 06:00 UTC


202300Z 2100/2206 05005KT CAVOK
BECMG 2107/2110 09010KT
PROB30
TEMPO 2111/2114 09015G25KT
BECMG 2117/2120 06005KT
BECMG 2121/2124 VRB03KT
No reported NOTAMs for that airfield.



MET'MAP, your aeronautical weather chart ! - Copyright ORBIFLY December 2007 - Disclaimer

ORBIFLY MET'MAP TEAM :

Programming & Development : Alexandra Zaïnal
Concept & Development : Baudouin d'Aumeries
Co-Development & Prog : Marc-Olivier Méhu
Technical & hardware support : Manuel Goepfert

Contact : metmap@orbifly.com




SOURCES & CREDITS :

   NOAA